This is the latest recevied weather packets stored in our database for station/object SR5NLK-1. If no packets are shown the sender has not sent any weather packets the latest 10 day(s).
| Time | Temp. | Humidity | Pressure | Rain* | Wind** | Luminosity | Snow |
|---|---|---|---|---|---|---|---|
| 1777698607 | 26.67° C | 35% | 1069 hPa | 0 mm | - | - | - |
| 1777698307 | 26.11° C | 36% | 1053.2 hPa | 0 mm | - | - | - |
| 1777698186 | 25.56° C | 37% | 1037.4 hPa | 0 mm | - | - | - |
| 1777698007 | 25° C | 37% | 1018.5 hPa | 0 mm | - | - | - |
| 1777697707 | 24.44° C | 39% | 1047 hPa | 0 mm | - | - | - |
| 1777697407 | 23.89° C | 40% | 1021.7 hPa | 0 mm | - | - | - |
| 1777697107 | 22.78° C | 42% | 1059.5 hPa | 0 mm | - | - | - |
| 1777696807 | 21.67° C | 44% | 1045.2 hPa | 0 mm | - | - | - |
| 1777696507 | 20.56° C | 46% | 1050.1 hPa | 0 mm | - | - | - |
| 1777696206 | 18.89° C | 49% | 1053.2 hPa | 0 mm | - | - | - |
| 1777695907 | 17.78° C | 52% | 1043.8 hPa | 0 mm | - | - | - |
| 1777695607 | 16.67° C | 56% | 1034.3 hPa | 0 mm | - | - | - |
| 1777695307 | 15° C | 60% | 1034.3 hPa | 0 mm | - | - | - |
| 1777695007 | 13.89° C | 66% | 1046.9 hPa | 0 mm | - | - | - |
| 1777694707 | 12.22° C | 70% | 1015.3 hPa | 0 mm | - | - | - |
| 1777694407 | 11.11° C | 75% | 1026.4 hPa | 0 mm | - | - | - |
| 1777694226 | 10° C | 77% | 1037.5 hPa | 0 mm | - | - | - |
| 1777694107 | 9.44° C | 77% | 1034.3 hPa | 0 mm | - | - | - |
| 1777693807 | 8.33° C | 77% | 1021.7 hPa | 0 mm | - | - | - |
| 1777693507 | 6.67° C | 75% | 1024.8 hPa | 0 mm | - | - | - |
| 1777693207 | 6.11° C | 74% | 1031.1 hPa | 0 mm | - | - | - |
| 1777692907 | 5.56° C | 74% | 1037.5 hPa | 0 mm | - | - | - |
| 1777692607 | 5.56° C | 74% | 1012.2 hPa | 0 mm | - | - | - |
| 1777692307 | 5.56° C | 74% | 1046.9 hPa | 0 mm | - | - | - |
| 1777692246 | 5.56° C | 74% | 1034.3 hPa | 0 mm | - | - | - |
* Rain latest hour (hover to see other rain measurements)
** Current wind speed in m/s (hover to see current wind gust speed)